Las Isletillas, Argentina
Current Conditions -  °F | °C
As of 2:00 PM on Friday 28 Nov 2014 (Local Time) from SAOC Reporting Station
Clear Clear  
Wind Chill: 84°   Ceiling: Unl
Heat Index: 84°   Visibility: 6mi
Dew Point: 43°   Wind: 28mph
Humidity: 23%   Direction: 360°N
Pressure: 29.8"   Gusts: NA
Location:  32.38°S, 63.78°W
Report Text: SAOC 281700Z 36024KT CAVOK 29/06 Q1009
Loading
Personal Weather Stations






























Interactive Weather Map New forecast layout! Learn more

10-Day Weather Forecast

Advertisements
Track Severe Weather on mobile